Time;durP1;ratioP1;P1;durP2;ratioP2;P2;SDS_P1;SDS_P2;PMS_P1;PMS_P2;Temp;Humidity;BMP_temperature;BMP_pressure;BME280_temperature;BME280_humidity;BME280_pressure;Samples;Min_cycle;Max_cycle;Signal;HPM_P1;HPM_P2
2022/03/28 00:01:52;;;;;;;;;;;20.20;38.00;;;;;;5062753;28;19925;-47
2022/03/28 00:04:21;;;;;;;;;;;20.20;38.00;;;;;;5094601;28;19921;-48
2022/03/28 00:06:48;;;;;;;;;;;20.20;38.00;;;;;;5068414;28;20781;-48
2022/03/28 00:09:15;;;;;;;;;;;20.20;38.00;;;;;;5069239;28;19943;-49
2022/03/28 00:11:42;;;;;;;;;;;20.20;38.00;;;;;;5067607;28;19959;-48
2022/03/28 00:14:10;;;;;;;;;;;20.20;38.00;;;;;;5065671;28;20006;-49
2022/03/28 00:16:40;;;;;;;;;;;20.20;38.00;;;;;;5069953;28;19935;-47
2022/03/28 00:19:07;;;;;;;;;;;20.20;38.00;;;;;;5064647;28;20003;-47
2022/03/28 00:21:33;;;;;;;;;;;20.20;38.00;;;;;;5065206;28;19958;-48
2022/03/28 00:24:00;;;;;;;;;;;20.20;38.00;;;;;;5066961;28;19928;-46
2022/03/28 00:26:27;;;;;;;;;;;20.20;38.00;;;;;;5067839;28;19944;-48
2022/03/28 00:28:53;;;;;;;;;;;20.20;38.00;;;;;;5058581;28;19967;-49
2022/03/28 00:31:22;;;;;;;;;;;20.20;38.00;;;;;;5094294;28;20297;-53
2022/03/28 00:33:49;;;;;;;;;;;20.20;38.00;;;;;;5095070;28;20337;-46
2022/03/28 00:36:16;;;;;;;;;;;20.20;38.00;;;;;;5097617;28;19933;-46
2022/03/28 00:38:43;;;;;;;;;;;20.20;38.00;;;;;;5071273;28;19926;-47
2022/03/28 00:41:10;;;;;;;;;;;20.20;38.00;;;;;;5065829;28;19920;-47
2022/03/28 00:43:43;;;;;;;;;;;20.20;38.00;;;;;;5067351;28;19940;-51
2022/03/28 00:46:10;;;;;;;;;;;20.20;38.00;;;;;;5066776;28;19921;-48
2022/03/28 00:48:42;;;;;;;;;;;20.20;38.00;;;;;;5067879;28;19960;-47
2022/03/28 00:51:10;;;;;;;;;;;20.20;37.90;;;;;;5071514;28;19933;-44
2022/03/28 00:53:37;;;;;;;;;;;20.20;38.00;;;;;;5070821;28;19924;-48
2022/03/28 00:56:03;;;;;;;;;;;20.20;38.00;;;;;;5074568;28;19954;-43
2022/03/28 00:58:30;;;;;;;;;;;20.20;38.00;;;;;;5071278;28;19927;-47
2022/03/28 01:00:57;;;;;;;;;;;20.20;38.00;;;;;;5071741;28;19962;-47
2022/03/28 01:03:24;;;;;;;;;;;20.20;38.00;;;;;;5069267;28;19974;-49
2022/03/28 01:05:52;;;;;;;;;;;20.20;37.90;;;;;;5097266;28;20247;-45
2022/03/28 01:08:19;;;;;;;;;;;20.20;37.90;;;;;;5067044;28;20017;-47
2022/03/28 01:10:46;;;;;;;;;;;20.20;37.90;;;;;;5099156;28;20246;-46
2022/03/28 01:13:13;;;;;;;;;;;20.20;38.00;;;;;;5071272;28;19927;-47
2022/03/28 01:15:39;;;;;;;;;;;20.20;37.90;;;;;;5070156;28;19920;-44
2022/03/28 01:18:05;;;;;;;;;;;20.20;37.90;;;;;;5066332;28;19964;-50
2022/03/28 01:20:32;;;;;;;;;;;20.20;38.00;;;;;;5065283;28;19920;-50
2022/03/28 01:23:01;;;;;;;;;;;20.20;37.90;;;;;;5096035;28;19925;-48
2022/03/28 01:25:29;;;;;;;;;;;20.20;37.90;;;;;;5067753;28;19946;-48
2022/03/28 01:27:56;;;;;;;;;;;20.20;37.90;;;;;;5074789;28;19920;-48
2022/03/28 01:30:23;;;;;;;;;;;20.20;37.90;;;;;;5064922;28;19924;-51
2022/03/28 01:32:50;;;;;;;;;;;20.20;37.90;;;;;;5073670;28;19928;-44
2022/03/28 01:35:25;;;;;;;;;;;20.20;37.90;;;;;;5066900;28;19928;-50
2022/03/28 01:37:52;;;;;;;;;;;20.20;38.00;;;;;;5069728;28;20354;-46
2022/03/28 01:40:20;;;;;;;;;;;20.20;37.90;;;;;;5071201;28;19981;-46
2022/03/28 01:42:49;;;;;;;;;;;20.20;37.90;;;;;;5069370;28;20020;-45
2022/03/28 01:45:15;;;;;;;;;;;20.20;37.90;;;;;;5070127;28;19932;-45
2022/03/28 01:47:42;;;;;;;;;;;20.20;37.90;;;;;;5070869;28;19964;-47
2022/03/28 01:50:11;;;;;;;;;;;20.20;37.90;;;;;;5068428;28;19956;-47
2022/03/28 01:52:37;;;;;;;;;;;20.20;37.90;;;;;;5070893;28;20270;-47
2022/03/28 01:55:05;;;;;;;;;;;20.20;37.90;;;;;;5069107;28;19970;-47
2022/03/28 01:57:33;;;;;;;;;;;20.20;37.90;;;;;;5072138;28;19921;-44
2022/03/28 02:00:01;;;;;;;;;;;20.20;37.90;;;;;;5063869;28;19920;-47
2022/03/28 02:02:30;;;;;;;;;;;20.20;37.90;;;;;;5070581;28;19943;-46
2022/03/28 02:04:56;;;;;;;;;;;20.20;38.00;;;;;;5063364;28;19978;-46
2022/03/28 02:07:23;;;;;;;;;;;20.20;37.90;;;;;;5069669;28;19924;-46
2022/03/28 02:09:50;;;;;;;;;;;20.20;37.90;;;;;;5072052;28;19921;-44
2022/03/28 02:12:17;;;;;;;;;;;20.20;37.90;;;;;;5063772;28;19925;-49
2022/03/28 02:14:45;;;;;;;;;;;20.20;38.00;;;;;;5062857;28;20362;-47
2022/03/28 02:17:12;;;;;;;;;;;20.20;37.90;;;;;;5069339;28;19921;-45
2022/03/28 02:19:39;;;;;;;;;;;20.20;37.90;;;;;;5067939;28;20377;-45
2022/03/28 02:22:06;;;;;;;;;;;20.20;37.90;;;;;;5060647;28;19931;-46
2022/03/28 02:24:32;;;;;;;;;;;20.20;37.90;;;;;;5064648;28;20375;-47
2022/03/28 02:26:59;;;;;;;;;;;20.20;37.90;;;;;;5058235;28;20006;-50
2022/03/28 02:29:26;;;;;;;;;;;20.20;37.90;;;;;;5089956;28;20051;-47
2022/03/28 02:31:54;;;;;;;;;;;20.20;38.50;;;;;;5066775;28;19928;-44
2022/03/28 02:34:21;;;;;;;;;;;20.20;37.90;;;;;;5096073;28;19984;-44
2022/03/28 02:36:48;;;;;;;;;;;20.20;37.90;;;;;;5064366;28;19924;-45
2022/03/28 02:39:15;;;;;;;;;;;20.20;37.90;;;;;;5064210;28;19925;-47
2022/03/28 02:41:41;;;;;;;;;;;20.20;37.90;;;;;;5089747;28;19946;-43
2022/03/28 02:44:11;;;;;;;;;;;20.20;37.90;;;;;;5067271;28;19935;-46
2022/03/28 02:46:38;;;;;;;;;;;20.20;37.90;;;;;;5066531;28;19989;-44
2022/03/28 02:49:06;;;;;;;;;;;20.20;38.00;;;;;;5066935;28;19928;-46
2022/03/28 02:51:33;;;;;;;;;;;20.20;37.90;;;;;;5067048;28;19943;-47
2022/03/28 02:53:59;;;;;;;;;;;20.20;37.90;;;;;;5070344;28;19955;-45
2022/03/28 02:56:28;;;;;;;;;;;20.20;37.90;;;;;;5064587;28;22901;-45
2022/03/28 02:58:55;;;;;;;;;;;20.20;37.90;;;;;;5067981;28;19959;-46
2022/03/28 03:01:22;;;;;;;;;;;20.20;37.90;;;;;;5068667;28;20418;-50
2022/03/28 03:03:48;;;;;;;;;;;20.20;37.90;;;;;;5070869;28;19986;-45
2022/03/28 03:06:17;;;;;;;;;;;20.20;37.90;;;;;;5069502;28;19939;-44
2022/03/28 03:08:43;;;;;;;;;;;20.20;37.90;;;;;;5071016;28;19920;-49
2022/03/28 03:11:10;;;;;;;;;;;20.20;37.90;;;;;;5067334;28;20090;-46
2022/03/28 03:13:37;;;;;;;;;;;20.20;37.90;;;;;;5066602;28;20094;-45
2022/03/28 03:16:04;;;;;;;;;;;20.20;37.90;;;;;;5071537;28;20099;-47
2022/03/28 03:18:31;;;;;;;;;;;20.20;37.90;;;;;;5063379;28;20019;-44
2022/03/28 03:20:58;;;;;;;;;;;20.20;37.90;;;;;;5069567;28;19974;-47
2022/03/28 03:23:27;;;;;;;;;;;20.20;37.90;;;;;;5093737;28;19928;-48
2022/03/28 03:25:54;;;;;;;;;;;20.20;37.90;;;;;;5065966;28;19928;-45
2022/03/28 03:28:22;;;;;;;;;;;20.20;37.90;;;;;;5063305;28;19925;-44
2022/03/28 03:30:49;;;;;;;;;;;20.20;37.90;;;;;;5080915;28;19974;-46
2022/03/28 03:33:16;;;;;;;;;;;20.20;37.90;;;;;;5055340;28;20067;-48
2022/03/28 03:35:42;;;;;;;;;;;20.20;37.90;;;;;;5094132;28;19920;-46
2022/03/28 03:38:09;;;;;;;;;;;20.20;37.90;;;;;;5065395;28;19921;-46
2022/03/28 03:40:37;;;;;;;;;;;20.20;37.90;;;;;;5065838;28;19944;-48
2022/03/28 03:43:04;;;;;;;;;;;20.20;37.90;;;;;;5058506;28;19920;-48
2022/03/28 03:45:31;;;;;;;;;;;20.20;37.90;;;;;;5066358;28;19931;-45
2022/03/28 03:47:58;;;;;;;;;;;20.20;37.90;;;;;;5069072;28;20052;-44
2022/03/28 03:50:27;;;;;;;;;;;20.20;37.90;;;;;;5067921;28;19932;-45
2022/03/28 03:52:55;;;;;;;;;;;20.20;37.80;;;;;;5063469;28;19944;-49
2022/03/28 03:55:21;;;;;;;;;;;20.20;37.90;;;;;;5065290;28;19925;-45
2022/03/28 03:57:49;;;;;;;;;;;20.20;37.90;;;;;;5067609;28;19920;-46
2022/03/28 04:00:16;;;;;;;;;;;20.20;37.90;;;;;;5072717;28;19975;-47
2022/03/28 04:02:43;;;;;;;;;;;20.20;38.40;;;;;;5073124;28;19983;-45
2022/03/28 04:05:10;;;;;;;;;;;20.20;37.90;;;;;;5088587;28;20321;-45
2022/03/28 04:07:38;;;;;;;;;;;20.20;37.90;;;;;;5073589;28;19995;-44
2022/03/28 04:10:04;;;;;;;;;;;20.20;37.90;;;;;;5071101;28;19920;-48
2022/03/28 04:12:31;;;;;;;;;;;20.20;37.90;;;;;;5074438;28;19924;-43
2022/03/28 04:15:00;;;;;;;;;;;20.20;37.90;;;;;;5067811;28;19928;-50
2022/03/28 04:17:28;;;;;;;;;;;20.20;37.90;;;;;;5074896;28;19921;-44
2022/03/28 04:19:55;;;;;;;;;;;20.20;37.80;;;;;;5073688;28;19943;-45
2022/03/28 04:22:21;;;;;;;;;;;20.20;37.90;;;;;;5074651;28;19932;-46
2022/03/28 04:24:48;;;;;;;;;;;20.20;37.90;;;;;;5071145;28;19950;-47
2022/03/28 04:27:15;;;;;;;;;;;20.20;37.80;;;;;;5072525;28;19931;-46
2022/03/28 04:29:42;;;;;;;;;;;20.20;37.90;;;;;;5072593;28;19932;-47
2022/03/28 04:32:11;;;;;;;;;;;20.20;37.90;;;;;;5066546;28;19944;-44
2022/03/28 04:34:38;;;;;;;;;;;20.20;37.90;;;;;;5070638;28;20011;-44
2022/03/28 04:37:05;;;;;;;;;;;20.20;37.90;;;;;;5070475;28;19931;-45
2022/03/28 04:39:34;;;;;;;;;;;20.20;37.80;;;;;;5075467;28;19929;-45
2022/03/28 04:42:01;;;;;;;;;;;20.20;37.90;;;;;;5070510;28;19940;-48
2022/03/28 04:44:30;;;;;;;;;;;20.20;37.80;;;;;;5077811;28;20347;-44
2022/03/28 04:46:57;;;;;;;;;;;20.20;37.80;;;;;;5073138;28;19983;-44
2022/03/28 04:49:25;;;;;;;;;;;20.20;37.80;;;;;;5073209;28;19928;-44
2022/03/28 04:51:52;;;;;;;;;;;20.20;37.80;;;;;;5059153;28;19924;-45
2022/03/28 04:54:19;;;;;;;;;;;20.20;37.80;;;;;;5072293;28;19924;-44
2022/03/28 04:56:46;;;;;;;;;;;20.20;37.80;;;;;;5070072;28;19927;-45
2022/03/28 04:59:12;;;;;;;;;;;20.20;37.80;;;;;;5062032;28;19924;-44
2022/03/28 05:01:39;;;;;;;;;;;20.20;37.80;;;;;;5061860;28;19924;-45
2022/03/28 05:04:06;;;;;;;;;;;20.20;37.90;;;;;;5060602;28;20016;-47
2022/03/28 05:06:34;;;;;;;;;;;20.20;37.80;;;;;;5064396;28;20266;-44
2022/03/28 05:09:01;;;;;;;;;;;20.20;37.80;;;;;;5062362;28;19925;-47
2022/03/28 05:11:29;;;;;;;;;;;20.20;37.80;;;;;;5064162;28;19928;-47
2022/03/28 05:13:56;;;;;;;;;;;20.20;37.80;;;;;;5070112;28;19947;-45
2022/03/28 05:16:23;;;;;;;;;;;20.20;37.90;;;;;;5061808;28;20003;-47
2022/03/28 05:18:50;;;;;;;;;;;20.20;37.80;;;;;;5063638;28;19929;-47
2022/03/28 05:21:17;;;;;;;;;;;20.20;37.80;;;;;;5058888;28;20015;-45
2022/03/28 05:23:46;;;;;;;;;;;20.20;37.80;;;;;;5065541;28;19988;-49
2022/03/28 05:26:13;;;;;;;;;;;20.20;37.80;;;;;;5061271;28;20346;-50
2022/03/28 05:28:40;;;;;;;;;;;20.20;37.90;;;;;;5063398;28;19981;-44
2022/03/28 05:31:06;;;;;;;;;;;20.20;37.90;;;;;;5078508;28;19920;-49
2022/03/28 05:33:33;;;;;;;;;;;20.20;37.90;;;;;;5056462;28;19936;-46
2022/03/28 05:36:00;;;;;;;;;;;20.20;37.80;;;;;;5064573;28;20370;-45
2022/03/28 05:38:28;;;;;;;;;;;20.20;37.80;;;;;;5061059;28;20019;-47
2022/03/28 05:40:57;;;;;;;;;;;20.20;37.90;;;;;;5067262;28;20011;-49
2022/03/28 05:43:23;;;;;;;;;;;20.20;37.90;;;;;;5062002;28;19952;-49
2022/03/28 05:45:52;;;;;;;;;;;20.20;37.80;;;;;;5086237;28;20039;-46
2022/03/28 05:48:18;;;;;;;;;;;20.20;37.80;;;;;;5066683;28;19932;-46
2022/03/28 05:50:46;;;;;;;;;;;20.20;37.80;;;;;;5058801;28;20310;-46
2022/03/28 05:53:13;;;;;;;;;;;20.20;37.80;;;;;;5059261;28;19928;-52
2022/03/28 05:55:40;;;;;;;;;;;20.20;37.80;;;;;;5056771;28;19926;-45
2022/03/28 05:58:09;;;;;;;;;;;20.20;37.80;;;;;;5059981;28;19932;-50
2022/03/28 06:00:36;;;;;;;;;;;20.20;37.80;;;;;;5060244;28;19999;-48
2022/03/28 06:03:04;;;;;;;;;;;20.20;37.80;;;;;;5062960;28;19924;-45
2022/03/28 06:05:31;;;;;;;;;;;20.20;37.80;;;;;;5091310;28;19931;-49
2022/03/28 06:07:58;;;;;;;;;;;20.20;38.00;;;;;;5085473;28;19982;-47
2022/03/28 06:10:25;;;;;;;;;;;20.20;37.80;;;;;;5062482;28;20500;-45
2022/03/28 06:12:52;;;;;;;;;;;20.20;37.80;;;;;;5058549;28;19956;-44
2022/03/28 06:15:20;;;;;;;;;;;20.20;37.80;;;;;;5062156;28;19927;-46
2022/03/28 06:17:47;;;;;;;;;;;20.20;37.80;;;;;;5060856;28;19983;-49
2022/03/28 06:20:14;;;;;;;;;;;20.20;37.80;;;;;;5055840;28;19925;-49
2022/03/28 06:22:41;;;;;;;;;;;20.20;37.80;;;;;;5061457;28;19970;-48
2022/03/28 06:25:08;;;;;;;;;;;20.20;37.80;;;;;;5059520;28;19920;-45
2022/03/28 06:27:40;;;;;;;;;;;20.20;37.80;;;;;;5059330;28;19924;-43
2022/03/28 06:30:08;;;;;;;;;;;20.20;37.80;;;;;;5055135;28;19943;-49
2022/03/28 06:32:36;;;;;;;;;;;20.20;37.80;;;;;;5053340;28;19932;-50
2022/03/28 06:35:04;;;;;;;;;;;20.20;37.80;;;;;;5059933;28;19975;-49
2022/03/28 06:37:31;;;;;;;;;;;20.20;37.80;;;;;;5054165;28;19927;-48
2022/03/28 06:39:58;;;;;;;;;;;20.20;37.80;;;;;;5055225;28;19921;-47
2022/03/28 06:42:25;;;;;;;;;;;20.20;37.80;;;;;;5085110;28;19959;-49
2022/03/28 06:44:52;;;;;;;;;;;20.20;37.80;;;;;;5056107;28;19991;-47
2022/03/28 06:47:18;;;;;;;;;;;20.20;37.80;;;;;;5058502;28;19929;-49
2022/03/28 06:49:47;;;;;;;;;;;20.20;37.80;;;;;;5059109;28;19970;-46
2022/03/28 06:52:15;;;;;;;;;;;20.30;37.90;;;;;;5055203;28;20019;-52
2022/03/28 06:54:42;;;;;;;;;;;20.20;37.80;;;;;;5049298;28;19933;-48
2022/03/28 06:57:09;;;;;;;;;;;20.20;37.40;;;;;;5049804;28;19925;-55
2022/03/28 06:59:36;;;;;;;;;;;20.20;37.30;;;;;;5049051;28;20360;-47
2022/03/28 07:02:02;;;;;;;;;;;20.10;37.00;;;;;;5047121;28;19991;-53
2022/03/28 07:04:30;;;;;;;;;;;20.10;37.00;;;;;;5039260;28;19920;-55
2022/03/28 07:06:59;;;;;;;;;;;20.10;37.00;;;;;;5030651;28;19982;-47
2022/03/28 07:09:28;;;;;;;;;;;20.10;37.10;;;;;;5040438;28;20328;-51
2022/03/28 07:11:58;;;;;;;;;;;20.10;37.10;;;;;;5037101;28;19940;-55
2022/03/28 07:14:25;;;;;;;;;;;20.00;37.10;;;;;;5044486;28;19948;-49
2022/03/28 07:16:52;;;;;;;;;;;20.00;37.00;;;;;;5071848;28;20364;-49
2022/03/28 07:19:19;;;;;;;;;;;20.00;37.00;;;;;;5024963;28;19920;-54
2022/03/28 07:21:46;;;;;;;;;;;20.00;36.90;;;;;;5039296;28;19933;-58
2022/03/28 07:24:14;;;;;;;;;;;20.00;36.80;;;;;;5071161;28;19932;-51
2022/03/28 07:26:44;;;;;;;;;;;20.00;36.80;;;;;;5045087;28;20032;-48
2022/03/28 07:29:11;;;;;;;;;;;19.90;36.70;;;;;;5044587;28;19921;-47
2022/03/28 07:31:39;;;;;;;;;;;19.90;36.70;;;;;;5061434;28;20507;-55
2022/03/28 07:36:51;;;;;;;;;;;19.90;36.70;;;;;;5064068;28;20404;-53
2022/03/28 07:39:20;;;;;;;;;;;19.90;36.70;;;;;;5058820;28;20126;-46
2022/03/28 07:41:47;;;;;;;;;;;19.90;36.60;;;;;;5061875;28;20279;-46
2022/03/28 07:44:14;;;;;;;;;;;19.90;36.60;;;;;;5062079;28;19956;-51
2022/03/28 07:46:41;;;;;;;;;;;19.90;36.60;;;;;;5051836;28;19921;-57
2022/03/28 07:49:08;;;;;;;;;;;19.90;36.60;;;;;;5087084;28;19921;-50
2022/03/28 07:51:35;;;;;;;;;;;19.80;36.40;;;;;;5047427;28;19940;-51
2022/03/28 07:54:01;;;;;;;;;;;19.90;36.50;;;;;;5077065;28;20234;-50
2022/03/28 07:56:29;;;;;;;;;;;19.80;36.40;;;;;;5043084;28;19932;-57
2022/03/28 07:58:56;;;;;;;;;;;19.80;36.40;;;;;;5044774;28;20535;-45
2022/03/28 08:01:23;;;;;;;;;;;19.90;36.40;;;;;;5045305;28;19933;-53
2022/03/28 08:03:49;;;;;;;;;;;19.80;36.30;;;;;;5046252;28;20034;-50
2022/03/28 08:06:16;;;;;;;;;;;19.80;36.30;;;;;;5045212;28;19935;-52
2022/03/28 08:08:43;;;;;;;;;;;19.80;36.20;;;;;;5047090;28;19979;-51
2022/03/28 08:11:10;;;;;;;;;;;19.80;36.20;;;;;;5056752;28;20378;-53
2022/03/28 08:13:38;;;;;;;;;;;19.80;36.20;;;;;;5043897;28;19939;-55
2022/03/28 08:16:05;;;;;;;;;;;19.80;36.20;;;;;;5057345;28;20016;-55
2022/03/28 08:18:32;;;;;;;;;;;19.80;36.20;;;;;;5058971;28;19932;-53
2022/03/28 08:20:59;;;;;;;;;;;19.80;36.10;;;;;;5083469;28;20284;-58
2022/03/28 08:23:26;;;;;;;;;;;19.80;36.20;;;;;;5049236;28;19958;-54
2022/03/28 08:25:53;;;;;;;;;;;19.70;36.10;;;;;;5060291;28;19920;-47
2022/03/28 08:28:20;;;;;;;;;;;19.70;36.10;;;;;;5056328;28;19924;-45
2022/03/28 08:30:48;;;;;;;;;;;19.70;36.10;;;;;;5061371;28;20019;-53
2022/03/28 08:33:15;;;;;;;;;;;19.70;36.10;;;;;;5054868;28;19932;-47
2022/03/28 08:35:42;;;;;;;;;;;19.70;36.00;;;;;;5058291;28;19924;-48
2022/03/28 08:38:09;;;;;;;;;;;19.70;36.00;;;;;;5057855;28;19920;-55
2022/03/28 08:40:36;;;;;;;;;;;19.70;35.90;;;;;;5037645;28;20262;-48
2022/03/28 08:43:04;;;;;;;;;;;19.70;35.90;;;;;;5080953;28;20398;-47
2022/03/28 08:45:31;;;;;;;;;;;19.70;35.80;;;;;;5058272;28;20398;-48
2022/03/28 08:47:59;;;;;;;;;;;19.70;35.80;;;;;;5055718;28;19920;-48
2022/03/28 08:50:26;;;;;;;;;;;19.70;35.80;;;;;;5085794;28;20052;-49
2022/03/28 08:52:53;;;;;;;;;;;19.70;35.70;;;;;;5061861;28;19928;-46
2022/03/28 08:55:21;;;;;;;;;;;19.70;35.70;;;;;;5059093;28;20348;-54
2022/03/28 08:57:49;;;;;;;;;;;19.70;35.70;;;;;;5072541;28;19924;-46
2022/03/28 09:00:17;;;;;;;;;;;19.60;35.60;;;;;;5061733;28;19932;-53
2022/03/28 09:02:44;;;;;;;;;;;19.70;35.80;;;;;;5061557;28;19924;-47
2022/03/28 09:05:13;;;;;;;;;;;19.60;35.70;;;;;;5058349;28;19921;-47
2022/03/28 09:07:39;;;;;;;;;;;19.70;35.80;;;;;;5053164;28;19925;-53
2022/03/28 09:10:09;;;;;;;;;;;19.70;35.80;;;;;;5054119;28;19931;-55
2022/03/28 09:12:41;;;;;;;;;;;19.70;35.80;;;;;;5060378;28;19928;-57
2022/03/28 09:15:09;;;;;;;;;;;19.70;35.80;;;;;;5057398;28;20278;-47
2022/03/28 09:17:36;;;;;;;;;;;19.70;35.80;;;;;;5058557;28;19921;-54
2022/03/28 09:20:03;;;;;;;;;;;19.70;35.80;;;;;;5055374;28;20219;-46
2022/03/28 09:22:32;;;;;;;;;;;19.70;35.80;;;;;;5059691;28;20305;-54
2022/03/28 09:24:59;;;;;;;;;;;19.70;35.80;;;;;;5084858;28;19931;-54
2022/03/28 09:27:26;;;;;;;;;;;19.70;35.80;;;;;;5051815;28;20192;-48
2022/03/28 09:29:57;;;;;;;;;;;19.70;35.80;;;;;;5047558;28;19924;-45
2022/03/28 09:32:24;;;;;;;;;;;19.70;35.80;;;;;;5082306;28;20311;-46
2022/03/28 09:35:07;;;;;;;;;;;19.70;35.80;;;;;;5049097;28;19962;-48
2022/03/28 09:37:48;;;;;;;;;;;19.70;35.80;;;;;;5053746;28;20381;-51
2022/03/28 09:40:22;;;;;;;;;;;19.70;35.80;;;;;;5047139;28;20420;-57
2022/03/28 09:42:49;;;;;;;;;;;19.70;35.80;;;;;;5050505;28;19920;-46
2022/03/28 09:45:18;;;;;;;;;;;19.70;35.80;;;;;;5082969;28;20043;-54
2022/03/28 09:47:53;;;;;;;;;;;19.70;35.90;;;;;;5053068;28;20483;-57
2022/03/28 09:50:26;;;;;;;;;;;19.70;35.90;;;;;;5050832;28;20011;-56
2022/03/28 09:52:55;;;;;;;;;;;19.70;35.90;;;;;;5056065;28;20412;-58
2022/03/28 09:55:22;;;;;;;;;;;19.70;35.90;;;;;;5050104;28;20285;-49
2022/03/28 09:57:48;;;;;;;;;;;19.70;36.00;;;;;;5049493;28;19932;-49
2022/03/28 10:00:17;;;;;;;;;;;19.70;36.00;;;;;;5052527;28;19920;-51
2022/03/28 10:02:44;;;;;;;;;;;19.80;36.10;;;;;;5046712;28;19932;-51
2022/03/28 10:05:11;;;;;;;;;;;19.80;36.10;;;;;;5051760;28;19931;-56
2022/03/28 10:07:37;;;;;;;;;;;19.80;36.10;;;;;;5047283;28;20304;-47
2022/03/28 10:10:06;;;;;;;;;;;19.80;36.10;;;;;;5048683;28;19921;-54
2022/03/28 10:12:33;;;;;;;;;;;19.80;36.10;;;;;;5069477;28;19921;-55
2022/03/28 10:15:01;;;;;;;;;;;19.80;36.10;;;;;;5081779;28;20436;-51
2022/03/28 10:17:28;;;;;;;;;;;19.80;36.00;;;;;;5069679;28;20016;-57
2022/03/28 10:19:55;;;;;;;;;;;19.80;36.10;;;;;;5059821;28;19948;-45
2022/03/28 10:22:23;;;;;;;;;;;19.80;36.10;;;;;;5050793;28;19931;-47
2022/03/28 10:24:50;;;;;;;;;;;19.80;36.10;;;;;;5052696;28;19924;-48
2022/03/28 10:27:20;;;;;;;;;;;19.80;36.20;;;;;;5048899;28;19934;-46
2022/03/28 10:29:47;;;;;;;;;;;19.80;36.20;;;;;;5051971;28;19929;-50
2022/03/28 10:32:14;;;;;;;;;;;19.80;36.20;;;;;;5065569;28;20377;-46
2022/03/28 10:34:42;;;;;;;;;;;19.90;36.30;;;;;;5048781;28;20530;-46
2022/03/28 10:37:24;;;;;;;;;;;19.90;36.30;;;;;;5050957;28;19975;-50
2022/03/28 10:39:51;;;;;;;;;;;19.90;36.30;;;;;;5054974;28;19951;-55
2022/03/28 10:42:24;;;;;;;;;;;19.90;36.20;;;;;;5054588;28;19920;-45
2022/03/28 10:44:59;;;;;;;;;;;19.90;36.20;;;;;;5057703;28;19942;-52
2022/03/28 10:47:41;;;;;;;;;;;19.90;36.20;;;;;;5052461;28;20034;-49
2022/03/28 10:50:08;;;;;;;;;;;19.90;36.20;;;;;;5050381;28;20400;-45
2022/03/28 10:52:35;;;;;;;;;;;19.90;36.20;;;;;;5053836;28;20039;-52
2022/03/28 10:55:06;;;;;;;;;;;19.90;36.20;;;;;;5050552;28;19963;-55
2022/03/28 10:57:34;;;;;;;;;;;19.90;36.20;;;;;;5053782;28;19993;-52
2022/03/28 11:00:01;;;;;;;;;;;19.90;36.20;;;;;;5054281;28;19924;-46
2022/03/28 11:02:28;;;;;;;;;;;19.90;36.20;;;;;;5055442;28;20009;-55
2022/03/28 11:04:55;;;;;;;;;;;19.90;36.30;;;;;;5055448;28;19924;-45
2022/03/28 11:07:22;;;;;;;;;;;19.90;36.20;;;;;;5082221;28;20484;-51
2022/03/28 11:09:50;;;;;;;;;;;19.90;36.20;;;;;;5046350;28;20357;-47
2022/03/28 11:12:20;;;;;;;;;;;19.90;36.20;;;;;;5068695;28;19963;-55
2022/03/28 11:15:02;;;;;;;;;;;19.90;36.20;;;;;;5050334;28;20141;-48
2022/03/28 11:17:30;;;;;;;;;;;19.90;36.20;;;;;;5056675;28;19920;-49
2022/03/28 11:20:09;;;;;;;;;;;19.90;36.30;;;;;;5051192;28;19928;-49
2022/03/28 11:22:47;;;;;;;;;;;19.90;36.20;;;;;;5048117;28;20109;-58
2022/03/28 11:25:33;;;;;;;;;;;19.90;36.30;;;;;;5049526;28;20306;-51
2022/03/28 11:28:07;;;;;;;;;;;19.90;36.20;;;;;;5052307;28;19921;-52
2022/03/28 11:30:37;;;;;;;;;;;19.90;36.20;;;;;;5054690;28;19927;-47
2022/03/28 11:33:07;;;;;;;;;;;19.90;36.20;;;;;;5056430;28;19927;-53
2022/03/28 11:35:34;;;;;;;;;;;19.90;36.30;;;;;;5055640;28;19964;-47
2022/03/28 11:38:01;;;;;;;;;;;19.90;36.20;;;;;;5051895;28;20332;-49
2022/03/28 11:40:36;;;;;;;;;;;19.90;36.20;;;;;;5047477;28;20313;-46
2022/03/28 11:43:03;;;;;;;;;;;19.90;36.30;;;;;;5054751;28;19978;-55
2022/03/28 11:45:31;;;;;;;;;;;20.00;36.40;;;;;;5053361;28;19978;-54
2022/03/28 11:48:03;;;;;;;;;;;19.90;36.30;;;;;;5052293;28;19948;-53
2022/03/28 11:50:32;;;;;;;;;;;19.90;36.30;;;;;;5051911;28;19924;-54
2022/03/28 11:52:59;;;;;;;;;;;19.90;36.30;;;;;;5049471;28;20019;-53
2022/03/28 11:55:26;;;;;;;;;;;19.90;36.30;;;;;;5083430;28;19924;-59
2022/03/28 12:00:37;;;;;;;;;;;19.90;36.30;;;;;;5088359;28;19940;-51
2022/03/28 12:03:05;;;;;;;;;;;20.00;36.50;;;;;;5055910;28;19935;-46
2022/03/28 12:05:32;;;;;;;;;;;19.90;36.40;;;;;;5052007;28;20023;-46
2022/03/28 12:08:00;;;;;;;;;;;19.90;36.40;;;;;;5077170;28;19931;-47
2022/03/28 12:10:28;;;;;;;;;;;19.90;36.40;;;;;;5049848;28;19930;-45
2022/03/28 12:12:54;;;;;;;;;;;19.90;36.40;;;;;;5042309;28;19944;-54
2022/03/28 12:15:25;;;;;;;;;;;19.90;36.40;;;;;;5043511;28;19921;-49
2022/03/28 12:17:52;;;;;;;;;;;20.00;36.50;;;;;;5049776;28;19936;-50
2022/03/28 12:20:20;;;;;;;;;;;20.00;36.50;;;;;;5056970;28;20016;-55
2022/03/28 12:22:47;;;;;;;;;;;20.00;36.50;;;;;;5054811;28;19924;-51
2022/03/28 12:25:22;;;;;;;;;;;20.00;36.50;;;;;;5067058;28;20396;-56
2022/03/28 12:27:51;;;;;;;;;;;20.00;36.50;;;;;;5077258;28;19979;-54
2022/03/28 12:30:18;;;;;;;;;;;20.00;36.50;;;;;;5048464;28;19991;-54
2022/03/28 12:32:45;;;;;;;;;;;20.00;36.50;;;;;;5052328;28;19925;-53
2022/03/28 12:35:11;;;;;;;;;;;20.00;36.60;;;;;;5046356;28;20427;-54
2022/03/28 12:37:40;;;;;;;;;;;20.00;36.50;;;;;;5053075;28;19925;-46
2022/03/28 12:40:07;;;;;;;;;;;20.00;36.50;;;;;;5054653;28;20346;-47
2022/03/28 12:42:34;;;;;;;;;;;20.00;36.50;;;;;;5088724;28;19928;-46
2022/03/28 12:45:01;;;;;;;;;;;20.00;36.60;;;;;;5084475;28;20002;-52
2022/03/28 12:47:28;;;;;;;;;;;20.00;36.50;;;;;;5079782;28;20336;-49
2022/03/28 12:49:55;;;;;;;;;;;20.00;36.60;;;;;;5047175;28;19920;-50
2022/03/28 12:52:24;;;;;;;;;;;20.00;36.60;;;;;;5051967;28;19924;-46
2022/03/28 12:54:56;;;;;;;;;;;20.00;36.60;;;;;;5042662;28;20015;-52
2022/03/28 12:57:27;;;;;;;;;;;20.00;36.70;;;;;;5050757;28;20020;-48
2022/03/28 12:59:54;;;;;;;;;;;20.00;36.70;;;;;;5050188;28;19927;-58
2022/03/28 13:02:21;;;;;;;;;;;20.00;36.70;;;;;;5052339;28;19944;-55
2022/03/28 13:04:49;;;;;;;;;;;20.00;36.70;;;;;;5049453;28;20015;-52
2022/03/28 13:07:17;;;;;;;;;;;20.00;36.70;;;;;;5091217;28;19990;-50
2022/03/28 13:09:53;;;;;;;;;;;20.00;36.70;;;;;;5049220;28;19974;-51
2022/03/28 13:12:21;;;;;;;;;;;20.00;36.70;;;;;;5053373;28;19932;-53
2022/03/28 13:14:49;;;;;;;;;;;20.00;36.70;;;;;;5082541;28;19929;-53
2022/03/28 13:17:16;;;;;;;;;;;20.00;36.70;;;;;;5048096;28;19932;-50
2022/03/28 13:19:43;;;;;;;;;;;20.00;36.70;;;;;;5056664;28;20334;-51
2022/03/28 13:22:10;;;;;;;;;;;20.00;36.70;;;;;;5049442;28;20052;-51
2022/03/28 13:24:37;;;;;;;;;;;20.00;36.70;;;;;;5053702;28;19920;-49
2022/03/28 13:29:46;;;;;;;;;;;20.10;36.80;;;;;;5056584;28;20023;-55
2022/03/28 13:32:13;;;;;;;;;;;20.00;36.70;;;;;;5054721;28;20265;-48
2022/03/28 13:34:40;;;;;;;;;;;20.00;36.70;;;;;;5052043;28;20011;-51
2022/03/28 13:37:07;;;;;;;;;;;20.00;36.70;;;;;;5053546;28;19970;-53
2022/03/28 13:39:34;;;;;;;;;;;20.00;36.70;;;;;;5055855;28;19920;-55
2022/03/28 13:42:01;;;;;;;;;;;20.10;36.80;;;;;;5104311;27;19946;-48
2022/03/28 13:44:28;;;;;;;;;;;20.10;36.90;;;;;;5075933;28;20516;-52
2022/03/28 13:46:56;;;;;;;;;;;20.10;36.80;;;;;;5056846;28;19924;-48
2022/03/28 13:49:22;;;;;;;;;;;20.00;36.70;;;;;;5047359;28;19924;-50
2022/03/28 13:51:49;;;;;;;;;;;20.00;36.70;;;;;;5046042;28;20023;-52
2022/03/28 13:54:16;;;;;;;;;;;20.00;36.70;;;;;;5046296;28;20286;-54
2022/03/28 13:56:43;;;;;;;;;;;20.00;36.70;;;;;;5057106;28;20282;-53
2022/03/28 13:59:10;;;;;;;;;;;20.00;36.70;;;;;;5050806;28;19932;-52
2022/03/28 14:01:38;;;;;;;;;;;20.00;36.70;;;;;;5049626;28;19932;-51
2022/03/28 14:04:08;;;;;;;;;;;20.00;36.70;;;;;;5053919;28;19921;-54
2022/03/28 14:06:35;;;;;;;;;;;20.00;36.70;;;;;;5066029;28;19924;-48
2022/03/28 14:09:02;;;;;;;;;;;20.10;36.90;;;;;;5058595;28;19984;-54
2022/03/28 14:11:29;;;;;;;;;;;20.00;36.70;;;;;;5059866;28;19920;-49
2022/03/28 14:13:56;;;;;;;;;;;20.00;36.70;;;;;;5051953;28;19925;-47
2022/03/28 14:16:23;;;;;;;;;;;20.00;36.70;;;;;;5076515;28;19925;-55
2022/03/28 14:18:50;;;;;;;;;;;20.00;36.70;;;;;;5044850;28;19928;-51
2022/03/28 14:21:19;;;;;;;;;;;20.00;36.70;;;;;;5050698;28;19925;-52
2022/03/28 14:23:45;;;;;;;;;;;20.00;36.70;;;;;;5056153;28;20005;-48
2022/03/28 14:26:13;;;;;;;;;;;20.10;36.80;;;;;;5048023;28;19939;-48
2022/03/28 14:28:40;;;;;;;;;;;20.00;36.70;;;;;;5059907;28;19935;-50